Time;durP1;ratioP1;P1;durP2;ratioP2;P2;SDS_P1;SDS_P2;PMS_P1;PMS_P2;Temp;Humidity;BMP_temperature;BMP_pressure;BME280_temperature;BME280_humidity;BME280_pressure;Samples;Min_cycle;Max_cycle;Signal;HPM_P1;HPM_P2
2023/09/23 00:01:40;;;;;;;4.10;3.80;;;;;;;10.99;100.00;96363.13;4935248;28;20690;-56
2023/09/23 00:04:08;;;;;;;4.03;3.73;;;;;;;11.01;100.00;96358.44;4854407;28;21190;-59
2023/09/23 00:06:37;;;;;;;5.00;3.73;;;;;;;10.98;100.00;96367.59;4898444;28;20791;-62
2023/09/23 00:09:05;;;;;;;3.50;3.30;;;;;;;10.75;100.00;96356.63;4936704;28;20195;-61
2023/09/23 00:11:35;;;;;;;3.60;3.30;;;;;;;10.79;100.00;96371.09;4939620;28;20262;-61
2023/09/23 00:14:05;;;;;;;4.13;3.70;;;;;;;10.73;100.00;96383.34;4933865;28;20255;-61
2023/09/23 00:16:33;;;;;;;3.93;3.63;;;;;;;10.67;100.00;96381.50;4937877;28;20270;-61
2023/09/23 00:19:02;;;;;;;3.70;3.50;;;;;;;10.65;100.00;96387.00;4934213;28;20251;-61
2023/09/23 00:21:29;;;;;;;5.97;4.00;;;;;;;10.63;100.00;96386.38;4939184;28;20245;-60
2023/09/23 00:23:57;;;;;;;3.83;3.53;;;;;;;10.70;100.00;96387.19;4933544;28;20211;-61
2023/09/23 00:26:26;;;;;;;4.03;3.57;;;;;;;10.65;100.00;96392.28;4939215;28;20294;-63
2023/09/23 00:28:56;;;;;;;3.33;3.17;;;;;;;10.66;100.00;96390.47;4931801;28;20207;-61
2023/09/23 00:31:24;;;;;;;3.90;3.60;;;;;;;10.63;100.00;96394.34;4936574;28;20671;-62
2023/09/23 00:33:52;;;;;;;3.73;3.53;;;;;;;10.60;100.00;96404.50;4936732;28;20258;-60
2023/09/23 00:36:22;;;;;;;3.80;3.60;;;;;;;10.56;100.00;96401.47;4936976;28;20298;-60
2023/09/23 00:38:49;;;;;;;4.00;3.80;;;;;;;10.54;100.00;96399.00;4906843;28;20667;-62
2023/09/23 00:41:18;;;;;;;3.37;3.17;;;;;;;10.51;100.00;96409.22;4854533;28;20658;-59
2023/09/23 00:43:47;;;;;;;3.93;3.47;;;;;;;10.51;100.00;96399.41;4940530;28;20302;-61
2023/09/23 00:46:21;;;;;;;3.57;3.30;;;;;;;10.40;100.00;96387.59;4935283;28;20677;-62
2023/09/23 00:48:49;;;;;;;3.60;3.33;;;;;;;10.50;100.00;96399.63;4938089;28;20211;-61
2023/09/23 00:51:18;;;;;;;4.00;3.70;;;;;;;10.52;100.00;96406.34;4933557;28;20297;-61
2023/09/23 00:53:46;;;;;;;3.90;3.60;;;;;;;10.52;100.00;96392.31;4927804;28;20214;-60
2023/09/23 00:56:16;;;;;;;5.67;3.13;;;;;;;10.55;100.00;96416.53;4892474;28;20237;-61
2023/09/23 00:58:44;;;;;;;3.90;3.60;;;;;;;10.55;100.00;96408.59;4936703;28;20262;-62
2023/09/23 01:01:14;;;;;;;3.80;3.50;;;;;;;10.55;100.00;96415.72;4934313;28;20281;-62
2023/09/23 01:03:43;;;;;;;3.90;3.60;;;;;;;10.50;100.00;96413.69;4936992;28;20214;-63
2023/09/23 01:06:15;;;;;;;3.73;3.43;;;;;;;10.40;100.00;96408.78;4934384;28;20310;-61
2023/09/23 01:08:45;;;;;;;3.67;3.40;;;;;;;10.49;100.00;96417.34;4938314;28;20226;-59
2023/09/23 01:11:16;;;;;;;3.63;3.33;;;;;;;10.52;100.00;96416.94;4935247;28;20225;-62
2023/09/23 01:13:45;;;;;;;3.47;3.17;;;;;;;10.40;100.00;96400.84;4920409;28;20211;-60
2023/09/23 01:16:15;;;;;;;2.97;2.77;;;;;;;10.46;100.00;96416.94;4854087;28;22324;-62
2023/09/23 01:18:45;;;;;;;3.40;3.20;;;;;;;10.47;100.00;96414.09;4939747;28;20255;-61
2023/09/23 01:21:14;;;;;;;3.30;3.10;;;;;;;10.40;100.00;96422.00;4935141;28;20202;-59
2023/09/23 01:23:43;;;;;;;3.77;3.50;;;;;;;10.40;100.00;96434.47;4938472;28;20230;-61
2023/09/23 01:26:12;;;;;;;3.57;3.27;;;;;;;10.34;100.00;96441.31;4935632;28;20386;-61
2023/09/23 01:28:41;;;;;;;5.90;2.90;;;;;;;10.32;100.00;96450.50;4943745;28;20242;-61
2023/09/23 01:31:08;;;;;;;2.70;2.60;;;;;;;10.32;100.00;96451.31;4936684;28;20273;-60
2023/09/23 01:33:36;;;;;;;2.90;2.70;;;;;;;10.34;100.00;96443.19;4940890;28;20203;-59
2023/09/23 01:36:06;;;;;;;3.33;2.80;;;;;;;10.32;100.00;96455.81;4936978;28;20691;-62
2023/09/23 01:38:34;;;;;;;3.37;3.17;;;;;;;10.30;100.00;96449.91;4941418;28;20231;-59
2023/09/23 01:41:04;;;;;;;2.97;2.87;;;;;;;10.45;100.00;96452.41;4937271;28;20207;-59
2023/09/23 01:43:32;;;;;;;3.20;3.00;;;;;;;10.55;100.00;96455.47;4937942;28;20605;-60
2023/09/23 01:46:03;;;;;;;3.50;3.10;;;;;;;10.62;100.00;96460.78;4936537;28;20761;-60
2023/09/23 01:48:31;;;;;;;3.00;2.80;;;;;;;10.68;100.00;96468.72;4941482;28;20273;-60
2023/09/23 01:50:59;;;;;;;3.60;3.30;;;;;;;10.62;100.00;96477.47;4834146;28;20875;-61
2023/09/23 01:53:28;;;;;;;5.20;4.50;;;;;;;10.68;100.00;96486.47;4941280;28;20679;-59
2023/09/23 01:55:56;;;;;;;3.70;3.50;;;;;;;10.68;100.00;96483.81;4943840;28;20923;-61
2023/09/23 01:58:25;;;;;;;3.40;3.20;;;;;;;10.66;100.00;96473.41;4950937;28;20274;-62
2023/09/23 02:00:55;;;;;;;4.10;3.80;;;;;;;10.77;100.00;96479.13;4945476;28;20290;-61
2023/09/23 02:03:23;;;;;;;3.43;3.13;;;;;;;10.82;100.00;96489.94;4945637;28;20214;-60
2023/09/23 02:05:52;;;;;;;3.87;3.50;;;;;;;10.81;100.00;96496.25;4937833;28;20262;-60
2023/09/23 02:08:20;;;;;;;3.43;3.10;;;;;;;10.77;100.00;96505.59;4936370;28;20211;-61
2023/09/23 02:10:48;;;;;;;3.90;3.53;;;;;;;10.81;100.00;96496.25;4938373;28;20219;-59
2023/09/23 02:13:16;;;;;;;3.60;3.30;;;;;;;10.90;100.00;96503.00;4938542;28;20223;-60
2023/09/23 02:15:45;;;;;;;3.30;3.10;;;;;;;10.80;100.00;96494.63;4936532;28;20207;-60
2023/09/23 02:18:14;;;;;;;3.00;2.80;;;;;;;10.87;100.00;96498.09;4936060;28;20296;-61
2023/09/23 02:20:43;;;;;;;3.13;2.93;;;;;;;10.87;100.00;96490.16;4819123;28;20317;-61
2023/09/23 02:23:11;;;;;;;3.73;2.83;;;;;;;10.89;100.00;96506.66;4939043;28;20199;-60
2023/09/23 02:25:39;;;;;;;3.67;3.47;;;;;;;10.92;100.00;96505.44;4937469;28;20680;-61
2023/09/23 02:28:07;;;;;;;3.33;3.13;;;;;;;10.98;100.00;96509.91;4937766;28;20733;-58
2023/09/23 02:30:35;;;;;;;3.43;3.17;;;;;;;11.01;100.00;96504.22;4935246;28;20210;-61
2023/09/23 02:33:04;;;;;;;3.50;3.30;;;;;;;11.06;100.00;96507.09;4939661;28;20350;-60
2023/09/23 02:35:34;;;;;;;2.87;2.77;;;;;;;10.95;100.00;96511.16;4934471;28;20214;-59
2023/09/23 02:38:03;;;;;;;3.80;3.50;;;;;;;11.00;100.00;96507.91;4936852;28;20297;-60
2023/09/23 02:40:31;;;;;;;3.17;2.93;;;;;;;11.06;100.00;96511.56;4933313;28;20219;-61
2023/09/23 02:42:59;;;;;;;3.30;3.10;;;;;;;10.96;100.00;96507.47;4939872;28;20616;-60
2023/09/23 02:45:27;;;;;;;3.53;3.23;;;;;;;10.95;100.00;96508.50;4933801;28;20230;-60
2023/09/23 02:47:55;;;;;;;3.20;3.10;;;;;;;10.88;100.00;96509.50;4936465;28;20326;-59
2023/09/23 02:50:24;;;;;;;2.93;2.83;;;;;;;10.85;100.00;96516.84;4821175;28;20329;-60
2023/09/23 02:52:54;;;;;;;3.73;3.23;;;;;;;10.75;100.00;96520.91;4939509;28;20238;-62
2023/09/23 02:55:22;;;;;;;3.20;3.00;;;;;;;10.62;100.00;96525.16;4932712;28;20258;-60
2023/09/23 02:57:52;;;;;;;3.30;3.10;;;;;;;10.50;100.00;96524.13;4936376;28;20231;-62
2023/09/23 03:00:22;;;;;;;3.57;3.27;;;;;;;10.45;100.00;96523.91;4934477;28;20242;-61
2023/09/23 03:02:53;;;;;;;3.57;3.37;;;;;;;10.37;100.00;96532.81;4937554;28;20215;-61
2023/09/23 03:05:25;;;;;;;3.67;3.43;;;;;;;10.25;100.00;96543.16;4934207;28;20491;-61
2023/09/23 03:07:57;;;;;;;3.67;3.43;;;;;;;10.20;100.00;96546.38;4939860;28;20226;-59
2023/09/23 03:10:39;;;;;;;4.33;3.93;;;;;;;10.17;100.00;96544.13;4932011;28;20207;-60
2023/09/23 03:13:07;;;;;;;3.50;3.30;;;;;;;10.16;100.00;96547.78;4937912;28;20195;-59
2023/09/23 03:15:41;;;;;;;3.57;3.27;;;;;;;10.14;100.00;96553.28;4936562;28;20206;-60
2023/09/23 03:18:09;;;;;;;3.60;3.30;;;;;;;10.19;100.00;96554.53;4938923;28;20223;-62
2023/09/23 03:20:40;;;;;;;3.30;3.10;;;;;;;10.16;100.00;96558.38;4808608;28;20279;-61
2023/09/23 03:23:10;;;;;;;4.70;3.60;;;;;;;10.12;100.00;96557.13;4939117;28;20286;-60
2023/09/23 03:25:48;;;;;;;3.80;3.47;;;;;;;10.13;100.00;96551.66;4939457;28;20250;-62
2023/09/23 03:28:16;;;;;;;4.53;4.23;;;;;;;10.12;100.00;96544.72;4940131;28;20273;-59
2023/09/23 03:30:47;;;;;;;3.73;3.20;;;;;;;10.17;100.00;96553.91;4938129;28;20237;-61
2023/09/23 03:33:18;;;;;;;4.03;3.80;;;;;;;10.19;100.00;96546.59;4939414;28;20211;-62
2023/09/23 03:35:46;;;;;;;4.03;3.83;;;;;;;10.16;100.00;96566.31;4934101;28;20206;-61
2023/09/23 03:38:15;;;;;;;3.97;3.67;;;;;;;10.09;100.00;96563.66;4939175;28;20223;-60
2023/09/23 03:40:49;;;;;;;4.10;3.70;;;;;;;10.04;100.00;96560.78;4937173;28;20233;-61
2023/09/23 03:43:17;;;;;;;3.70;3.50;;;;;;;10.02;100.00;96564.63;4937367;28;20214;-61
2023/09/23 03:45:45;;;;;;;4.57;4.03;;;;;;;10.04;100.00;96573.19;4935052;28;20203;-63
2023/09/23 03:48:13;;;;;;;4.30;4.00;;;;;;;9.98;100.00;96558.91;4939059;28;20231;-62
2023/09/23 03:50:40;;;;;;;4.13;3.93;;;;;;;10.01;100.00;96560.34;4936712;28;20337;-62
2023/09/23 03:53:09;;;;;;;4.73;4.33;;;;;;;10.02;100.00;96570.72;4936138;28;20203;-62
2023/09/23 03:55:38;;;;;;;3.80;3.60;;;;;;;10.00;100.00;96570.09;4814772;28;20210;-61
2023/09/23 03:58:06;;;;;;;3.83;3.53;;;;;;;10.04;100.00;96576.66;4938722;28;20733;-60
2023/09/23 04:00:34;;;;;;;4.03;3.73;;;;;;;10.03;100.00;96582.13;4935805;28;20764;-60
2023/09/23 04:03:02;;;;;;;4.33;3.93;;;;;;;10.08;100.00;96583.19;4936555;28;20206;-60
2023/09/23 04:05:31;;;;;;;4.37;4.07;;;;;;;10.12;100.00;96597.66;4887482;28;20296;-62
2023/09/23 04:07:58;;;;;;;3.70;3.47;;;;;;;10.17;100.00;96598.91;4939827;28;20223;-61
2023/09/23 04:10:27;;;;;;;3.73;3.43;;;;;;;10.24;100.00;96608.53;4936136;28;20330;-62
2023/09/23 04:12:56;;;;;;;3.73;3.43;;;;;;;10.32;100.00;96604.88;4938198;28;22435;-59
2023/09/23 04:15:24;;;;;;;3.93;3.63;;;;;;;10.33;100.00;96614.47;4937149;28;20211;-62
2023/09/23 04:17:52;;;;;;;3.40;3.20;;;;;;;10.35;100.00;96616.94;4939235;28;20222;-60
2023/09/23 04:20:20;;;;;;;3.40;3.20;;;;;;;10.42;100.00;96623.09;4934911;28;20326;-61
2023/09/23 04:22:48;;;;;;;4.03;3.70;;;;;;;10.46;100.00;96629.63;4934976;28;20718;-61
2023/09/23 04:25:16;;;;;;;3.97;3.67;;;;;;;10.53;100.00;96635.78;4844088;28;20230;-60
2023/09/23 04:27:44;;;;;;;3.60;3.40;;;;;;;10.55;100.00;96638.22;4935142;28;20316;-58
2023/09/23 04:30:15;;;;;;;3.90;3.60;;;;;;;10.50;100.00;96633.50;4931275;28;20212;-60
2023/09/23 04:32:43;;;;;;;3.97;3.67;;;;;;;10.57;100.00;96646.81;4937582;28;20207;-59
2023/09/23 04:35:12;;;;;;;3.83;3.63;;;;;;;10.51;100.00;96647.59;4933902;28;20238;-59
2023/09/23 04:37:40;;;;;;;4.07;3.53;;;;;;;10.38;100.00;96648.31;4938351;28;20238;-59
2023/09/23 04:40:10;;;;;;;3.50;3.30;;;;;;;10.21;100.00;96653.91;4935240;28;20461;-58
2023/09/23 04:42:38;;;;;;;3.23;3.03;;;;;;;10.11;100.00;96656.09;4937224;28;20199;-60
2023/09/23 04:45:07;;;;;;;3.40;3.20;;;;;;;10.02;100.00;96650.13;4936168;28;20215;-59
2023/09/23 04:47:37;;;;;;;3.27;3.03;;;;;;;10.11;100.00;96664.03;4936294;28;20227;-60
2023/09/23 04:50:10;;;;;;;3.27;2.97;;;;;;;10.17;100.00;96673.03;4935721;28;20265;-59
2023/09/23 04:52:38;;;;;;;3.00;2.80;;;;;;;10.17;100.00;96662.44;4936288;28;20218;-59
2023/09/23 04:55:07;;;;;;;3.10;2.90;;;;;;;10.12;100.00;96657.72;4936934;28;20730;-61
2023/09/23 04:57:35;;;;;;;3.80;3.60;;;;;;;9.97;100.00;96665.75;4937857;28;20227;-61
2023/09/23 05:00:08;;;;;;;3.57;3.27;;;;;;;9.84;100.00;96663.84;4843658;28;20739;-61
2023/09/23 05:02:40;;;;;;;4.00;3.80;;;;;;;9.85;100.00;96671.59;4940369;28;20273;-62
2023/09/23 05:05:09;;;;;;;4.00;3.47;;;;;;;9.85;100.00;96673.44;4940768;28;20214;-61
2023/09/23 05:07:38;;;;;;;3.50;3.00;;;;;;;9.85;100.00;96676.88;4941751;28;20278;-60
2023/09/23 05:10:07;;;;;;;3.87;3.37;;;;;;;9.89;100.00;96682.63;4938060;28;20239;-59
2023/09/23 05:12:34;;;;;;;3.33;3.13;;;;;;;9.76;100.00;96678.03;4943343;28;20219;-60
2023/09/23 05:15:03;;;;;;;3.20;2.90;;;;;;;9.69;100.00;96693.03;4937892;28;20829;-61
2023/09/23 05:17:31;;;;;;;2.60;2.50;;;;;;;9.66;100.00;96688.94;4877423;28;20241;-61
2023/09/23 05:20:00;;;;;;;2.80;2.60;;;;;;;9.58;100.00;96693.53;4940668;28;20779;-62
2023/09/23 05:22:28;;;;;;;2.90;2.70;;;;;;;9.55;100.00;96690.25;4934872;28;20226;-61
2023/09/23 05:24:57;;;;;;;2.80;2.70;;;;;;;9.52;100.00;96698.56;4943294;28;20300;-60
2023/09/23 05:27:25;;;;;;;2.80;2.70;;;;;;;9.53;100.00;96694.91;4937755;28;20293;-60
2023/09/23 05:29:54;;;;;;;2.23;2.13;;;;;;;9.52;100.00;96701.22;4950266;28;20271;-61
2023/09/23 05:32:21;;;;;;;2.43;2.30;;;;;;;9.48;100.00;96705.25;4832834;28;20214;-61
2023/09/23 05:34:52;;;;;;;3.10;2.80;;;;;;;9.52;100.00;96713.63;4942150;28;20219;-60
2023/09/23 05:37:22;;;;;;;3.03;2.77;;;;;;;9.48;100.00;96718.47;4936255;28;20262;-60
2023/09/23 05:39:49;;;;;;;2.40;2.30;;;;;;;9.51;100.00;96725.22;4940455;28;20211;-58
2023/09/23 05:42:23;;;;;;;2.27;2.00;;;;;;;9.58;100.00;96719.97;4935834;28;20262;-59
2023/09/23 05:44:50;;;;;;;2.13;2.03;;;;;;;9.60;100.00;96726.72;4937494;28;20202;-60
2023/09/23 05:47:18;;;;;;;2.47;2.37;;;;;;;9.62;100.00;96734.47;4935164;28;20222;-59
2023/09/23 05:49:45;;;;;;;2.77;2.10;;;;;;;9.64;100.00;96732.44;4942083;28;20246;-59
2023/09/23 05:52:14;;;;;;;2.17;2.07;;;;;;;9.71;100.00;96730.72;4938279;28;20203;-60
2023/09/23 05:54:43;;;;;;;1.83;1.73;;;;;;;9.65;100.00;96729.63;4942114;28;20211;-59
2023/09/23 05:57:11;;;;;;;1.87;1.77;;;;;;;9.65;100.00;96724.34;4935859;28;20847;-59
2023/09/23 05:59:38;;;;;;;1.30;1.30;;;;;;;9.63;100.00;96731.63;4942106;28;20289;-60
2023/09/23 06:02:08;;;;;;;1.90;1.80;;;;;;;9.59;100.00;96735.69;4938983;28;20250;-57
2023/09/23 06:04:36;;;;;;;1.40;1.30;;;;;;;9.58;100.00;96728.75;4938962;28;20560;-60
2023/09/23 06:07:04;;;;;;;1.90;1.80;;;;;;;9.68;100.00;96744.31;4833516;28;21114;-57
2023/09/23 06:09:33;;;;;;;1.90;1.80;;;;;;;9.75;100.00;96754.94;4940524;28;21435;-60
2023/09/23 06:12:02;;;;;;;1.73;1.63;;;;;;;9.78;100.00;96755.38;4935799;28;20410;-61
2023/09/23 06:14:30;;;;;;;1.23;1.17;;;;;;;9.75;100.00;96758.41;4938581;28;20207;-59
2023/09/23 06:16:58;;;;;;;1.37;1.37;;;;;;;9.91;100.00;96761.81;4938712;28;20254;-59
2023/09/23 06:19:26;;;;;;;1.20;1.20;;;;;;;10.10;100.00;96766.47;4939526;28;20211;-58
2023/09/23 06:21:54;;;;;;;2.73;1.63;;;;;;;10.06;100.00;96762.56;4939480;28;20331;-60
2023/09/23 06:24:21;;;;;;;1.70;1.60;;;;;;;10.15;100.00;96776.47;4938662;28;20238;-60
2023/09/23 06:26:50;;;;;;;1.50;1.50;;;;;;;10.07;100.00;96780.09;4938399;28;20710;-59
2023/09/23 06:29:19;;;;;;;1.57;1.40;;;;;;;9.97;100.00;96779.56;4941195;28;20687;-60
2023/09/23 06:31:47;;;;;;;1.77;1.67;;;;;;;9.96;100.00;96786.69;4938340;28;20262;-60
2023/09/23 06:34:14;;;;;;;1.10;1.10;;;;;;;10.01;100.00;96793.25;4936956;28;20206;-60
2023/09/23 06:36:42;;;;;;;1.33;1.30;;;;;;;10.01;100.00;96783.47;4939325;28;20415;-58
2023/09/23 06:39:10;;;;;;;1.27;1.17;;;;;;;9.99;100.00;96796.91;4940076;28;20211;-60
2023/09/23 06:41:38;;;;;;;1.73;1.67;;;;;;;9.95;100.00;96794.81;4884010;28;23315;-58
2023/09/23 06:44:10;;;;;;;1.37;1.37;;;;;;;9.99;100.00;96793.41;4909043;28;20203;-58
2023/09/23 06:46:40;;;;;;;1.37;1.30;;;;;;;10.04;100.00;96796.34;4876157;28;20257;-60
2023/09/23 06:49:08;;;;;;;1.90;1.40;;;;;;;9.95;100.00;96802.75;4939636;28;20227;-60
2023/09/23 06:51:35;;;;;;;1.70;1.60;;;;;;;9.99;100.00;96799.56;4933216;28;20266;-58
2023/09/23 06:54:04;;;;;;;1.33;1.33;;;;;;;9.95;100.00;96808.88;4941670;28;20199;-60
2023/09/23 06:56:32;;;;;;;2.60;1.77;;;;;;;10.05;100.00;96805.09;4936716;28;20313;-60
2023/09/23 06:58:59;;;;;;;2.23;1.63;;;;;;;10.13;100.00;96810.25;4942236;28;20682;-58
2023/09/23 07:01:27;;;;;;;1.70;1.50;;;;;;;10.13;100.00;96811.09;4934508;28;20230;-58
2023/09/23 07:03:56;;;;;;;2.00;1.90;;;;;;;10.25;100.00;96815.84;4942768;28;20207;-60
2023/09/23 07:06:24;;;;;;;1.43;1.43;;;;;;;10.27;100.00;96816.47;4936256;28;20223;-59
2023/09/23 07:08:52;;;;;;;2.00;1.70;;;;;;;10.33;100.00;96812.25;4938021;28;20702;-58
2023/09/23 07:11:20;;;;;;;1.90;1.80;;;;;;;10.21;100.00;96822.53;4935288;28;20971;-59
2023/09/23 07:13:48;;;;;;;2.30;2.10;;;;;;;10.25;100.00;96821.16;4940018;28;20683;-62
2023/09/23 07:16:16;;;;;;;2.10;2.00;;;;;;;10.25;100.00;96823.78;4831732;28;20227;-58
2023/09/23 07:18:45;;;;;;;1.97;1.87;;;;;;;10.25;100.00;96829.09;4938120;28;20241;-59
2023/09/23 07:21:14;;;;;;;1.50;1.50;;;;;;;10.34;100.00;96827.94;4936511;28;20257;-60
2023/09/23 07:23:42;;;;;;;1.90;1.80;;;;;;;10.74;100.00;96838.06;4934875;28;20233;-58
2023/09/23 07:26:09;;;;;;;1.80;1.70;;;;;;;11.07;100.00;96842.75;4938492;28;20269;-60
2023/09/23 07:28:37;;;;;;;2.80;2.70;;;;;;;11.26;100.00;96843.88;4938984;28;20830;-62
2023/09/23 07:31:10;;;;;;;1.80;1.70;;;;;;;11.43;100.00;96843.53;4907783;28;20211;-62
2023/09/23 07:33:38;;;;;;;2.80;1.77;;;;;;;11.45;100.00;96844.16;4884551;28;20235;-60
2023/09/23 07:36:10;;;;;;;1.40;1.40;;;;;;;11.57;100.00;96847.88;4939472;28;20215;-61
2023/09/23 07:38:39;;;;;;;1.23;1.23;;;;;;;11.64;100.00;96852.41;4935191;28;20840;-58
2023/09/23 07:41:07;;;;;;;1.73;1.60;;;;;;;11.63;100.00;96845.44;4941633;28;20238;-61
2023/09/23 07:43:34;;;;;;;1.47;1.47;;;;;;;11.76;100.00;96852.66;4890549;28;20367;-62
2023/09/23 07:46:02;;;;;;;1.73;1.33;;;;;;;11.95;100.00;96867.00;4943321;28;20211;-59
2023/09/23 07:48:30;;;;;;;1.47;1.37;;;;;;;11.93;100.00;96872.47;4828254;28;20263;-61
2023/09/23 07:50:57;;;;;;;1.30;1.30;;;;;;;12.10;100.00;96875.63;4938541;28;20206;-61
2023/09/23 07:53:25;;;;;;;1.63;1.53;;;;;;;12.05;100.00;96888.69;4935548;28;20195;-60
2023/09/23 07:55:54;;;;;;;1.80;1.40;;;;;;;11.92;100.00;96881.47;4942386;28;20219;-60
2023/09/23 07:58:22;;;;;;;1.33;1.33;;;;;;;12.33;100.00;96886.91;4889095;28;20217;-61
2023/09/23 08:00:49;;;;;;;1.23;1.23;;;;;;;12.20;100.00;96895.66;4941222;28;20596;-61
2023/09/23 08:03:17;;;;;;;1.77;1.37;;;;;;;12.36;100.00;96902.44;4937509;28;20219;-61
2023/09/23 08:05:44;;;;;;;2.77;1.20;;;;;;;12.27;100.00;96899.13;4941751;28;20293;-61
2023/09/23 08:08:12;;;;;;;1.37;1.27;;;;;;;12.57;100.00;96904.09;4934188;28;20223;-60
2023/09/23 08:10:40;;;;;;;1.00;1.00;;;;;;;12.70;100.00;96901.44;4938754;28;20300;-62
2023/09/23 08:13:09;;;;;;;1.50;1.40;;;;;;;12.90;100.00;96900.59;4935442;28;20246;-61
2023/09/23 08:15:37;;;;;;;1.30;1.17;;;;;;;12.97;100.00;96904.06;4939732;28;20226;-61
2023/09/23 08:18:05;;;;;;;1.23;1.17;;;;;;;12.90;100.00;96913.91;4885631;28;20297;-61
2023/09/23 08:20:32;;;;;;;1.47;1.23;;;;;;;12.71;100.00;96934.97;4939011;28;20281;-63
2023/09/23 08:23:00;;;;;;;1.30;0.93;;;;;;;12.65;100.00;96927.00;4826050;28;20226;-62
2023/09/23 08:25:28;;;;;;;1.30;1.30;;;;;;;12.54;100.00;96931.06;4936853;28;20831;-60
2023/09/23 08:27:56;;;;;;;3.23;1.20;;;;;;;12.73;100.00;96932.94;4889834;28;20334;-59
2023/09/23 08:30:26;;;;;;;1.10;1.00;;;;;;;12.72;100.00;96939.28;4936035;28;20234;-59
2023/09/23 08:32:54;;;;;;;1.30;1.20;;;;;;;12.76;100.00;96944.19;4935323;28;20258;-59
2023/09/23 08:35:23;;;;;;;1.23;1.23;;;;;;;12.81;100.00;96941.72;4938766;28;20211;-61
2023/09/23 08:37:50;;;;;;;1.70;1.60;;;;;;;12.95;100.00;96938.03;4937525;28;20729;-59
2023/09/23 08:40:20;;;;;;;1.10;1.10;;;;;;;13.15;100.00;96935.34;4943127;28;20527;-59
2023/09/23 08:42:51;;;;;;;3.70;3.43;;;;;;;13.35;100.00;96939.00;4941587;28;20281;-60
2023/09/23 08:45:22;;;;;;;1.70;1.30;;;;;;;13.14;100.00;96943.56;4941075;28;20632;-60
2023/09/23 08:47:52;;;;;;;1.17;1.13;;;;;;;13.21;100.00;96932.88;4891395;28;20237;-59
2023/09/23 08:50:20;;;;;;;0.70;0.70;;;;;;;13.13;100.00;96945.38;4942707;28;20864;-61
2023/09/23 08:52:48;;;;;;;1.10;1.10;;;;;;;13.40;100.00;96953.34;4940380;28;20199;-61
2023/09/23 08:55:18;;;;;;;1.60;1.50;;;;;;;13.71;100.00;96951.03;4943406;28;20245;-61
2023/09/23 08:57:45;;;;;;;2.23;1.50;;;;;;;13.94;100.00;96952.41;4832682;28;20572;-59
2023/09/23 09:00:17;;;;;;;0.70;0.70;;;;;;;14.57;100.00;96959.66;4939942;28;20251;-59
2023/09/23 09:02:45;;;;;;;1.37;1.27;;;;;;;14.44;100.00;96959.75;4939377;28;20239;-60
2023/09/23 09:05:15;;;;;;;0.60;0.60;;;;;;;14.45;100.00;96964.03;4940284;28;20210;-58
2023/09/23 09:07:43;;;;;;;1.43;0.90;;;;;;;14.52;100.00;96961.31;4936176;28;21028;-59
2023/09/23 09:10:10;;;;;;;1.30;1.30;;;;;;;15.08;100.00;96966.91;4940581;28;20224;-59
2023/09/23 09:12:38;;;;;;;1.10;1.10;;;;;;;15.32;100.00;96966.06;4938573;28;20679;-60
2023/09/23 09:15:07;;;;;;;1.17;1.17;;;;;;;15.66;100.00;96964.91;4941840;28;20216;-60
2023/09/23 09:17:35;;;;;;;1.83;1.27;;;;;;;15.61;100.00;96961.06;4936030;28;21044;-58
2023/09/23 09:20:06;;;;;;;1.17;1.13;;;;;;;15.39;100.00;96959.88;4940302;28;20234;-59
2023/09/23 09:22:36;;;;;;;0.80;0.80;;;;;;;15.56;100.00;96963.56;4936275;28;20203;-58
2023/09/23 09:25:04;;;;;;;1.97;1.50;;;;;;;15.51;100.00;96954.59;4942605;28;20258;-60
2023/09/23 09:27:32;;;;;;;1.13;1.03;;;;;;;15.24;100.00;96957.53;4936377;28;20224;-58
2023/09/23 09:30:00;;;;;;;1.03;1.03;;;;;;;15.23;100.00;96951.38;4938466;28;20218;-60
2023/09/23 09:32:42;;;;;;;1.23;0.73;;;;;;;14.89;100.00;96957.00;4842443;28;20254;-59
2023/09/23 09:35:13;;;;;;;0.90;0.90;;;;;;;14.49;100.00;96954.59;4942739;28;20242;-58
2023/09/23 09:37:44;;;;;;;2.10;0.83;;;;;;;14.58;100.00;96955.13;4936081;28;20227;-59
2023/09/23 09:40:16;;;;;;;1.47;0.80;;;;;;;14.53;100.00;96957.63;4942293;28;20499;-60
2023/09/23 09:42:49;;;;;;;0.90;0.90;;;;;;;15.14;100.00;96942.81;4945444;28;20220;-60
2023/09/23 09:45:19;;;;;;;0.90;0.90;;;;;;;15.41;100.00;96939.09;4940630;28;20340;-58
2023/09/23 09:47:48;;;;;;;0.90;0.90;;;;;;;15.27;100.00;96951.75;4936340;28;21099;-58
2023/09/23 09:50:17;;;;;;;1.20;1.10;;;;;;;15.26;100.00;96950.13;4942215;28;20227;-59
2023/09/23 09:52:46;;;;;;;1.53;0.87;;;;;;;15.25;100.00;96951.97;4936145;28;20215;-58
2023/09/23 09:55:18;;;;;;;0.77;0.70;;;;;;;15.55;100.00;96937.91;4939106;28;20450;-62
2023/09/23 09:57:47;;;;;;;1.23;1.13;;;;;;;15.64;100.00;96938.44;4937017;28;21737;-58
2023/09/23 10:00:23;;;;;;;1.80;1.70;;;;;;;15.47;100.00;96943.56;4941706;28;20207;-60
2023/09/23 10:02:57;;;;;;;1.70;1.57;;;;;;;15.14;100.00;96947.34;4936025;28;20710;-62
2023/09/23 10:05:32;;;;;;;0.97;0.97;;;;;;;14.79;100.00;96946.00;4942058;28;20779;-61
2023/09/23 10:08:12;;;;;;;0.90;0.90;;;;;;;14.47;100.00;96953.97;4848781;28;20246;-59
2023/09/23 10:10:47;;;;;;;1.37;0.90;;;;;;;14.26;100.00;96949.78;4939697;28;20217;-61
2023/09/23 10:13:16;;;;;;;1.20;1.10;;;;;;;14.31;100.00;96944.63;4937642;28;20217;-59
2023/09/23 10:15:44;;;;;;;0.77;0.77;;;;;;;14.43;100.00;96953.59;4939931;28;20294;-58
2023/09/23 10:18:13;;;;;;;1.00;1.00;;;;;;;14.39;100.00;96952.38;4937480;28;20223;-61
2023/09/23 10:20:42;;;;;;;1.00;1.00;;;;;;;14.73;100.00;96947.69;4940382;28;20215;-60
2023/09/23 10:23:15;;;;;;;1.00;0.97;;;;;;;15.19;100.00;96950.19;4938139;28;20222;-58
2023/09/23 10:25:43;;;;;;;1.20;1.20;;;;;;;15.70;100.00;96948.22;4938402;28;20762;-56
2023/09/23 10:28:22;;;;;;;0.73;0.73;;;;;;;15.63;100.00;96940.28;4940469;28;21249;-56
2023/09/23 10:30:58;;;;;;;1.00;0.87;;;;;;;15.93;100.00;96940.59;4940624;28;20199;-56
2023/09/23 10:33:26;;;;;;;1.17;1.13;;;;;;;16.41;100.00;96946.97;4935837;28;20773;-54
2023/09/23 10:35:54;;;;;;;0.80;0.80;;;;;;;16.53;100.00;96936.34;4937704;28;20630;-59
2023/09/23 10:38:23;;;;;;;1.57;0.90;;;;;;;16.46;100.00;96939.09;4822557;28;20638;-56
2023/09/23 10:40:52;;;;;;;0.83;0.83;;;;;;;16.15;100.00;96933.75;4937846;28;20199;-60
2023/09/23 10:43:20;;;;;;;1.47;1.10;;;;;;;16.16;100.00;96938.06;4937670;28;20215;-54
2023/09/23 10:45:48;;;;;;;1.40;1.30;;;;;;;15.99;100.00;96939.72;4939674;28;20285;-57
2023/09/23 10:48:16;;;;;;;0.90;0.83;;;;;;;16.06;100.00;96940.44;4939170;28;20249;-60
2023/09/23 10:50:45;;;;;;;2.80;2.03;;;;;;;16.02;100.00;96936.59;4940391;28;20218;-59
2023/09/23 10:53:14;;;;;;;1.87;0.90;;;;;;;16.39;100.00;96944.53;4935629;28;20230;-59
2023/09/23 10:55:43;;;;;;;0.93;0.93;;;;;;;16.71;96.37;96951.50;4942104;28;20756;-57
2023/09/23 10:58:11;;;;;;;1.60;1.10;;;;;;;16.64;94.35;96948.91;4935841;28;20261;-61
2023/09/23 11:00:38;;;;;;;1.10;1.00;;;;;;;16.50;96.12;96950.97;4941391;28;20723;-59
2023/09/23 11:03:08;;;;;;;0.93;0.90;;;;;;;16.49;92.64;96958.19;4934990;28;20211;-62
2023/09/23 11:05:37;;;;;;;3.20;1.10;;;;;;;15.88;92.52;96935.94;4941328;28;20223;-60
2023/09/23 11:08:06;;;;;;;1.33;0.83;;;;;;;15.67;94.00;96958.53;4936468;28;20254;-60
2023/09/23 11:10:34;;;;;;;1.50;0.80;;;;;;;15.66;91.28;96959.56;4938107;28;20206;-60
2023/09/23 11:13:06;;;;;;;0.70;0.70;;;;;;;15.67;93.08;96956.69;4850980;28;20225;-59
2023/09/23 11:15:34;;;;;;;0.93;0.93;;;;;;;15.81;90.77;96960.03;4939751;28;20207;-61
2023/09/23 11:18:02;;;;;;;0.90;0.77;;;;;;;16.03;91.46;96959.59;4939026;28;20680;-60
2023/09/23 11:20:30;;;;;;;0.73;0.73;;;;;;;16.05;89.28;96962.84;4938211;28;20199;-60
2023/09/23 11:23:02;;;;;;;1.10;1.00;;;;;;;16.56;89.58;96966.09;4938728;28;20579;-59
2023/09/23 11:25:30;;;;;;;1.00;1.00;;;;;;;16.75;84.22;96969.50;4940283;28;20246;-59
2023/09/23 11:28:00;;;;;;;0.70;0.70;;;;;;;17.00;77.67;96975.75;4937478;28;20761;-58
2023/09/23 11:30:30;;;;;;;1.23;1.00;;;;;;;16.75;78.14;96968.72;4938719;28;20869;-59
2023/09/23 11:32:57;;;;;;;1.00;1.00;;;;;;;16.68;78.46;96979.50;4936014;28;20285;-59
2023/09/23 11:35:25;;;;;;;3.80;1.30;;;;;;;16.63;81.65;96976.69;4941079;28;20338;-60